Melrose, Louisiana
Current Conditions -  °F | °C
As of 10:15 AM on Sunday 23 Nov 2014 (Local Time) from KIER Reporting Station
Overcast Overcast  
Wind Chill: 64°   Ceiling: 1000
Heat Index: 64°   Visibility: 10mi
Dew Point: 62°   Wind: 12mph
Humidity: 94%   Direction: 240°WSW
Pressure: 29.59"   Gusts: 17mph
Location:  31.6°N, 92.97°W
Report Text: KIER 231615Z AUTO 24010G15KT 10SM BKN010 BKN070 OVC110 18/17 A2959 RMK AO2 T01760166
Loading
Personal Weather Stations






























Interactive Weather Map New forecast layout! Learn more

10-Day Weather Forecast

Advertisements
Track Severe Weather on mobile